Taytay, Philippines
Current Conditions -  °F | °C
As of 2:00 PM on Wednesday 22 Oct 2014 (Local Time) from RPLL Reporting Station
Broken Clouds Broken Clouds  
Wind Chill: 90°   Ceiling: 10000
Heat Index: 102°   Visibility: 6mi
Dew Point: 77°   Wind: 6mph
Humidity: 66%   Direction: 310°NW
Pressure: 29.85"   Gusts: NA
Location:  14.57°N, 121.13°E
Report Text: RPLL 220600Z 31005KT 230V030 9999 SCT025 BKN100 32/25 Q1011 RESH NOSIG RMK A2983
Loading
Personal Weather Stations






























Interactive Weather Map
Tropical Storm Tracking
New forecast layout! Learn more

10-Day Weather Forecast

Advertisements
Track Severe Weather on mobile